Skamokawa, Washington
Current Conditions -  °F | °C
As of 3:25 AM on Sunday 21 Dec 2014 (Local Time) from KAST Reporting Station
Overcast Overcast  
Wind Chill: 55°   Ceiling: 4600
Heat Index: 55°   Visibility: 9mi
Dew Point: 51°   Wind: 16mph
Humidity: 86%   Direction: 250°WSW
Pressure: 29.86"   Gusts: NA
Location:  46.27°N, 123.46°W
Report Text: KAST 211125Z AUTO 25014KT 9SM FEW015 BKN046 OVC060 13/11 A2986 RMK AO2 T01280106 $
Loading
Personal Weather Stations






























Interactive Weather Map New forecast layout! Learn more

10-Day Weather Forecast

Advertisements
Track Severe Weather on mobile